sensor_id;sensor_type;location;lat;lon;timestamp;temperature;humidity
49829;DHT22;35723;51.194;5.112;2024-03-02T00:02:15;10.20;99.90
49829;DHT22;35723;51.194;5.112;2024-03-02T00:04:44;10.30;99.90
49829;DHT22;35723;51.194;5.112;2024-03-02T00:07:11;10.30;99.90
49829;DHT22;35723;51.194;5.112;2024-03-02T00:09:39;10.40;99.90
49829;DHT22;35723;51.194;5.112;2024-03-02T00:12:05;10.50;99.90
49829;DHT22;35723;51.194;5.112;2024-03-02T00:14:31;10.50;99.90
49829;DHT22;35723;51.194;5.112;2024-03-02T00:16:56;10.50;99.90
49829;DHT22;35723;51.194;5.112;2024-03-02T00:19:22;10.50;99.90
49829;DHT22;35723;51.194;5.112;2024-03-02T00:21:48;10.50;99.90
49829;DHT22;35723;51.194;5.112;2024-03-02T00:24:26;10.50;99.90
49829;DHT22;35723;51.194;5.112;2024-03-02T00:26:55;10.50;99.90
49829;DHT22;35723;51.194;5.112;2024-03-02T00:29:21;10.50;99.90
49829;DHT22;35723;51.194;5.112;2024-03-02T00:31:47;10.60;99.90
49829;DHT22;35723;51.194;5.112;2024-03-02T00:34:14;10.60;99.90
49829;DHT22;35723;51.194;5.112;2024-03-02T00:36:41;10.60;99.90
49829;DHT22;35723;51.194;5.112;2024-03-02T00:39:07;10.60;99.90
49829;DHT22;35723;51.194;5.112;2024-03-02T00:41:33;10.60;99.90
49829;DHT22;35723;51.194;5.112;2024-03-02T00:44:01;10.70;99.90
49829;DHT22;35723;51.194;5.112;2024-03-02T00:46:34;10.60;99.90
49829;DHT22;35723;51.194;5.112;2024-03-02T00:49:44;10.50;99.90
49829;DHT22;35723;51.194;5.112;2024-03-02T00:51:52;10.50;99.90
49829;DHT22;35723;51.194;5.112;2024-03-02T00:54:23;10.50;99.90
49829;DHT22;35723;51.194;5.112;2024-03-02T00:56:50;10.50;99.90
49829;DHT22;35723;51.194;5.112;2024-03-02T00:59:16;10.50;99.90
49829;DHT22;35723;51.194;5.112;2024-03-02T01:01:41;10.50;99.90
49829;DHT22;35723;51.194;5.112;2024-03-02T01:04:10;10.50;99.90
49829;DHT22;35723;51.194;5.112;2024-03-02T01:06:36;10.50;99.90
49829;DHT22;35723;51.194;5.112;2024-03-02T01:09:02;10.50;99.90
49829;DHT22;35723;51.194;5.112;2024-03-02T01:11:30;10.50;99.90
49829;DHT22;35723;51.194;5.112;2024-03-02T01:13:56;10.50;99.90
49829;DHT22;35723;51.194;5.112;2024-03-02T01:16:21;10.40;99.90
49829;DHT22;35723;51.194;5.112;2024-03-02T01:18:47;10.40;99.90
49829;DHT22;35723;51.194;5.112;2024-03-02T01:21:13;10.50;99.90
49829;DHT22;35723;51.194;5.112;2024-03-02T01:23:38;10.40;99.90
49829;DHT22;35723;51.194;5.112;2024-03-02T01:26:04;10.30;99.90
49829;DHT22;35723;51.194;5.112;2024-03-02T01:28:30;10.40;99.90
49829;DHT22;35723;51.194;5.112;2024-03-02T01:30:55;10.40;99.90
49829;DHT22;35723;51.194;5.112;2024-03-02T01:33:21;10.40;99.90
49829;DHT22;35723;51.194;5.112;2024-03-02T01:35:47;10.40;99.90
49829;DHT22;35723;51.194;5.112;2024-03-02T01:38:13;10.40;99.90
49829;DHT22;35723;51.194;5.112;2024-03-02T01:40:39;10.40;99.90
49829;DHT22;35723;51.194;5.112;2024-03-02T01:43:05;10.30;99.90
49829;DHT22;35723;51.194;5.112;2024-03-02T01:45:31;10.30;99.90
49829;DHT22;35723;51.194;5.112;2024-03-02T01:47:57;10.30;99.90
49829;DHT22;35723;51.194;5.112;2024-03-02T01:50:27;10.40;99.90
49829;DHT22;35723;51.194;5.112;2024-03-02T01:52:55;10.40;99.90
49829;DHT22;35723;51.194;5.112;2024-03-02T01:55:20;10.30;99.90
49829;DHT22;35723;51.194;5.112;2024-03-02T01:57:47;10.30;99.90
49829;DHT22;35723;51.194;5.112;2024-03-02T02:00:14;10.20;99.90
49829;DHT22;35723;51.194;5.112;2024-03-02T02:02:39;10.20;99.90
49829;DHT22;35723;51.194;5.112;2024-03-02T02:05:05;10.20;99.90
49829;DHT22;35723;51.194;5.112;2024-03-02T02:07:31;10.20;99.90
49829;DHT22;35723;51.194;5.112;2024-03-02T02:09:57;10.10;99.90
49829;DHT22;35723;51.194;5.112;2024-03-02T02:12:23;10.20;99.90
49829;DHT22;35723;51.194;5.112;2024-03-02T02:14:49;10.20;99.90
49829;DHT22;35723;51.194;5.112;2024-03-02T02:17:15;10.20;99.90
49829;DHT22;35723;51.194;5.112;2024-03-02T02:19:42;10.20;99.90
49829;DHT22;35723;51.194;5.112;2024-03-02T02:22:08;10.20;99.90
49829;DHT22;35723;51.194;5.112;2024-03-02T02:24:34;10.10;99.90
49829;DHT22;35723;51.194;5.112;2024-03-02T02:27:00;10.20;99.90
49829;DHT22;35723;51.194;5.112;2024-03-02T02:29:25;10.20;99.90
49829;DHT22;35723;51.194;5.112;2024-03-02T02:31:51;10.20;99.90
49829;DHT22;35723;51.194;5.112;2024-03-02T02:34:17;10.20;99.90
49829;DHT22;35723;51.194;5.112;2024-03-02T02:36:42;10.10;99.90
49829;DHT22;35723;51.194;5.112;2024-03-02T02:39:11;10.10;99.90
49829;DHT22;35723;51.194;5.112;2024-03-02T02:41:39;10.10;99.90
49829;DHT22;35723;51.194;5.112;2024-03-02T02:44:05;10.10;99.90
49829;DHT22;35723;51.194;5.112;2024-03-02T02:46:30;10.10;99.90
49829;DHT22;35723;51.194;5.112;2024-03-02T02:48:56;10.10;99.90
49829;DHT22;35723;51.194;5.112;2024-03-02T02:51:22;10.10;99.90
49829;DHT22;35723;51.194;5.112;2024-03-02T02:53:47;10.10;99.90
49829;DHT22;35723;51.194;5.112;2024-03-02T02:56:13;10.00;99.90
49829;DHT22;35723;51.194;5.112;2024-03-02T02:58:40;10.00;99.90
49829;DHT22;35723;51.194;5.112;2024-03-02T03:01:07;9.90;99.90
49829;DHT22;35723;51.194;5.112;2024-03-02T03:03:33;9.90;99.90
49829;DHT22;35723;51.194;5.112;2024-03-02T03:05:58;10.00;99.90
49829;DHT22;35723;51.194;5.112;2024-03-02T03:08:24;9.90;99.90
49829;DHT22;35723;51.194;5.112;2024-03-02T03:10:50;10.00;99.90
49829;DHT22;35723;51.194;5.112;2024-03-02T03:13:16;10.00;99.90
49829;DHT22;35723;51.194;5.112;2024-03-02T03:15:41;10.00;99.90
49829;DHT22;35723;51.194;5.112;2024-03-02T03:18:07;10.00;99.90
49829;DHT22;35723;51.194;5.112;2024-03-02T03:20:33;9.90;99.90
49829;DHT22;35723;51.194;5.112;2024-03-02T03:23:02;9.90;99.90
49829;DHT22;35723;51.194;5.112;2024-03-02T03:25:29;9.90;99.90
49829;DHT22;35723;51.194;5.112;2024-03-02T03:27:55;10.00;99.90
49829;DHT22;35723;51.194;5.112;2024-03-02T03:30:21;9.90;99.90
49829;DHT22;35723;51.194;5.112;2024-03-02T03:32:46;9.90;99.90
49829;DHT22;35723;51.194;5.112;2024-03-02T03:35:14;9.90;99.90
49829;DHT22;35723;51.194;5.112;2024-03-02T03:37:41;9.90;99.90
49829;DHT22;35723;51.194;5.112;2024-03-02T03:40:07;9.90;99.90
49829;DHT22;35723;51.194;5.112;2024-03-02T03:42:36;9.90;99.90
49829;DHT22;35723;51.194;5.112;2024-03-02T03:45:02;9.80;99.90
49829;DHT22;35723;51.194;5.112;2024-03-02T03:47:28;9.80;99.90
49829;DHT22;35723;51.194;5.112;2024-03-02T03:49:53;9.80;99.90
49829;DHT22;35723;51.194;5.112;2024-03-02T03:52:19;9.80;99.90
49829;DHT22;35723;51.194;5.112;2024-03-02T03:54:44;9.80;99.90
49829;DHT22;35723;51.194;5.112;2024-03-02T03:57:10;9.80;99.90
49829;DHT22;35723;51.194;5.112;2024-03-02T03:59:36;9.70;99.90
49829;DHT22;35723;51.194;5.112;2024-03-02T04:02:04;9.80;99.90
49829;DHT22;35723;51.194;5.112;2024-03-02T04:04:30;9.70;99.90
49829;DHT22;35723;51.194;5.112;2024-03-02T04:06:55;9.70;99.90
49829;DHT22;35723;51.194;5.112;2024-03-02T04:09:21;9.70;99.90
49829;DHT22;35723;51.194;5.112;2024-03-02T04:11:47;9.60;99.90
49829;DHT22;35723;51.194;5.112;2024-03-02T04:14:12;9.60;99.90
49829;DHT22;35723;51.194;5.112;2024-03-02T04:16:38;9.60;99.90
49829;DHT22;35723;51.194;5.112;2024-03-02T04:19:04;9.60;99.90
49829;DHT22;35723;51.194;5.112;2024-03-02T04:21:30;9.60;99.90
49829;DHT22;35723;51.194;5.112;2024-03-02T04:23:56;9.60;99.90
49829;DHT22;35723;51.194;5.112;2024-03-02T04:26:25;9.60;99.90
49829;DHT22;35723;51.194;5.112;2024-03-02T04:28:52;9.60;99.90
49829;DHT22;35723;51.194;5.112;2024-03-02T04:31:18;9.50;99.90
49829;DHT22;35723;51.194;5.112;2024-03-02T04:33:43;9.50;99.90
49829;DHT22;35723;51.194;5.112;2024-03-02T04:36:09;9.50;99.90
49829;DHT22;35723;51.194;5.112;2024-03-02T04:38:35;9.50;99.90
49829;DHT22;35723;51.194;5.112;2024-03-02T04:41:01;9.50;99.90
49829;DHT22;35723;51.194;5.112;2024-03-02T04:44:06;9.50;99.90
49829;DHT22;35723;51.194;5.112;2024-03-02T04:49:36;9.40;99.90
49829;DHT22;35723;51.194;5.112;2024-03-02T04:52:02;9.40;99.90
49829;DHT22;35723;51.194;5.112;2024-03-02T04:54:28;9.50;99.90
49829;DHT22;35723;51.194;5.112;2024-03-02T04:56:55;9.50;99.90
49829;DHT22;35723;51.194;5.112;2024-03-02T05:02:59;9.50;99.90
49829;DHT22;35723;51.194;5.112;2024-03-02T05:12:13;9.50;99.90
49829;DHT22;35723;51.194;5.112;2024-03-02T05:15:12;9.50;99.90
49829;DHT22;35723;51.194;5.112;2024-03-02T05:20:27;9.30;99.90
49829;DHT22;35723;51.194;5.112;2024-03-02T05:22:53;9.30;99.90
49829;DHT22;35723;51.194;5.112;2024-03-02T05:25:19;9.40;99.90
49829;DHT22;35723;51.194;5.112;2024-03-02T05:27:44;9.40;99.90
49829;DHT22;35723;51.194;5.112;2024-03-02T05:30:11;9.40;99.90
49829;DHT22;35723;51.194;5.112;2024-03-02T05:38:51;9.30;99.90
49829;DHT22;35723;51.194;5.112;2024-03-02T05:41:17;9.30;99.90
49829;DHT22;35723;51.194;5.112;2024-03-02T05:43:44;9.20;99.90
49829;DHT22;35723;51.194;5.112;2024-03-02T05:49:36;9.30;99.90
49829;DHT22;35723;51.194;5.112;2024-03-02T05:55:25;9.20;99.90
49829;DHT22;35723;51.194;5.112;2024-03-02T05:57:50;9.10;99.90
49829;DHT22;35723;51.194;5.112;2024-03-02T06:04:14;9.00;99.90
49829;DHT22;35723;51.194;5.112;2024-03-02T06:10:02;9.00;99.90
49829;DHT22;35723;51.194;5.112;2024-03-02T06:12:31;8.90;99.90
49829;DHT22;35723;51.194;5.112;2024-03-02T06:14:56;8.90;99.90
49829;DHT22;35723;51.194;5.112;2024-03-02T06:17:22;8.90;99.90
49829;DHT22;35723;51.194;5.112;2024-03-02T06:19:58;8.90;99.90
49829;DHT22;35723;51.194;5.112;2024-03-02T06:25:45;8.90;99.90
49829;DHT22;35723;51.194;5.112;2024-03-02T06:28:17;8.80;99.90
49829;DHT22;35723;51.194;5.112;2024-03-02T06:34:11;8.90;99.90
49829;DHT22;35723;51.194;5.112;2024-03-02T06:36:38;8.90;99.90
49829;DHT22;35723;51.194;5.112;2024-03-02T06:39:05;8.80;99.90
49829;DHT22;35723;51.194;5.112;2024-03-02T06:41:37;8.80;99.90
49829;DHT22;35723;51.194;5.112;2024-03-02T06:44:03;8.80;99.90
49829;DHT22;35723;51.194;5.112;2024-03-02T06:46:29;8.80;99.90
49829;DHT22;35723;51.194;5.112;2024-03-02T06:48:55;8.80;99.90
49829;DHT22;35723;51.194;5.112;2024-03-02T06:51:20;8.90;99.90
49829;DHT22;35723;51.194;5.112;2024-03-02T06:54:10;8.90;99.90
49829;DHT22;35723;51.194;5.112;2024-03-02T07:00:10;8.80;99.90
49829;DHT22;35723;51.194;5.112;2024-03-02T07:02:54;8.80;99.90
49829;DHT22;35723;51.194;5.112;2024-03-02T07:05:20;8.80;99.90
49829;DHT22;35723;51.194;5.112;2024-03-02T07:07:46;8.80;99.90
49829;DHT22;35723;51.194;5.112;2024-03-02T07:10:14;8.90;99.90
49829;DHT22;35723;51.194;5.112;2024-03-02T07:12:59;8.80;99.90
49829;DHT22;35723;51.194;5.112;2024-03-02T07:15:24;8.80;99.90
49829;DHT22;35723;51.194;5.112;2024-03-02T07:18:10;8.80;99.90
49829;DHT22;35723;51.194;5.112;2024-03-02T07:20:36;8.90;99.90
49829;DHT22;35723;51.194;5.112;2024-03-02T07:23:01;8.80;99.90
49829;DHT22;35723;51.194;5.112;2024-03-02T07:25:27;8.90;99.90
49829;DHT22;35723;51.194;5.112;2024-03-02T07:27:53;8.90;99.90
49829;DHT22;35723;51.194;5.112;2024-03-02T07:30:24;8.90;99.90
49829;DHT22;35723;51.194;5.112;2024-03-02T07:32:50;8.90;99.90
49829;DHT22;35723;51.194;5.112;2024-03-02T07:35:16;8.80;99.90
49829;DHT22;35723;51.194;5.112;2024-03-02T07:37:43;8.90;99.90
49829;DHT22;35723;51.194;5.112;2024-03-02T07:40:15;9.00;99.90
49829;DHT22;35723;51.194;5.112;2024-03-02T07:42:41;9.00;99.90
49829;DHT22;35723;51.194;5.112;2024-03-02T07:45:07;9.10;99.90
49829;DHT22;35723;51.194;5.112;2024-03-02T07:47:36;9.10;99.90
49829;DHT22;35723;51.194;5.112;2024-03-02T07:50:02;9.20;99.90
49829;DHT22;35723;51.194;5.112;2024-03-02T07:52:32;9.30;99.90
49829;DHT22;35723;51.194;5.112;2024-03-02T07:58:25;9.50;99.90
49829;DHT22;35723;51.194;5.112;2024-03-02T08:01:11;9.60;99.90
49829;DHT22;35723;51.194;5.112;2024-03-02T08:03:37;9.60;99.90
49829;DHT22;35723;51.194;5.112;2024-03-02T08:06:03;9.70;99.90
49829;DHT22;35723;51.194;5.112;2024-03-02T08:12:04;9.80;99.90
49829;DHT22;35723;51.194;5.112;2024-03-02T08:17:51;9.90;99.90
49829;DHT22;35723;51.194;5.112;2024-03-02T08:23:21;10.10;99.90
49829;DHT22;35723;51.194;5.112;2024-03-02T08:25:46;10.10;99.90
49829;DHT22;35723;51.194;5.112;2024-03-02T08:28:12;10.10;99.90
49829;DHT22;35723;51.194;5.112;2024-03-02T08:34:08;10.20;99.90
49829;DHT22;35723;51.194;5.112;2024-03-02T08:36:34;10.30;99.90
49829;DHT22;35723;51.194;5.112;2024-03-02T08:39:00;10.40;99.90
49829;DHT22;35723;51.194;5.112;2024-03-02T08:41:25;10.50;99.90
49829;DHT22;35723;51.194;5.112;2024-03-02T08:43:51;10.50;99.90
49829;DHT22;35723;51.194;5.112;2024-03-02T08:46:38;10.60;99.90
49829;DHT22;35723;51.194;5.112;2024-03-02T08:49:04;10.60;99.90
49829;DHT22;35723;51.194;5.112;2024-03-02T08:51:30;10.70;99.90
49829;DHT22;35723;51.194;5.112;2024-03-02T08:53:56;10.80;99.90
49829;DHT22;35723;51.194;5.112;2024-03-02T08:56:33;10.90;99.90
49829;DHT22;35723;51.194;5.112;2024-03-02T09:02:26;11.10;99.90
49829;DHT22;35723;51.194;5.112;2024-03-02T09:08:21;11.30;99.90
49829;DHT22;35723;51.194;5.112;2024-03-02T10:42:54;13.70;99.90
49829;DHT22;35723;51.194;5.112;2024-03-02T10:45:20;13.70;99.90
49829;DHT22;35723;51.194;5.112;2024-03-02T10:47:50;13.80;99.90
49829;DHT22;35723;51.194;5.112;2024-03-02T10:53:48;14.10;99.90
49829;DHT22;35723;51.194;5.112;2024-03-02T10:59:37;14.30;99.90
49829;DHT22;35723;51.194;5.112;2024-03-02T11:02:07;14.30;99.90
49829;DHT22;35723;51.194;5.112;2024-03-02T11:04:36;14.40;99.90
49829;DHT22;35723;51.194;5.112;2024-03-02T11:07:07;14.50;99.90
49829;DHT22;35723;51.194;5.112;2024-03-02T11:09:44;14.60;99.90
49829;DHT22;35723;51.194;5.112;2024-03-02T11:12:31;14.80;99.90
49829;DHT22;35723;51.194;5.112;2024-03-02T11:15:09;14.90;99.90
49829;DHT22;35723;51.194;5.112;2024-03-02T11:17:36;15.00;99.90
49829;DHT22;35723;51.194;5.112;2024-03-02T11:20:03;15.10;99.90
49829;DHT22;35723;51.194;5.112;2024-03-02T11:22:30;15.20;99.90
49829;DHT22;35723;51.194;5.112;2024-03-02T11:24:55;15.30;99.90
49829;DHT22;35723;51.194;5.112;2024-03-02T11:33:08;15.50;99.90
49829;DHT22;35723;51.194;5.112;2024-03-02T11:35:38;15.70;99.90
49829;DHT22;35723;51.194;5.112;2024-03-02T11:38:09;15.80;99.90
49829;DHT22;35723;51.194;5.112;2024-03-02T11:40:35;15.80;99.90
49829;DHT22;35723;51.194;5.112;2024-03-02T11:43:01;15.80;99.90
49829;DHT22;35723;51.194;5.112;2024-03-02T11:45:27;15.90;99.90
49829;DHT22;35723;51.194;5.112;2024-03-02T11:48:00;15.90;99.90
49829;DHT22;35723;51.194;5.112;2024-03-02T11:50:49;16.00;99.90
49829;DHT22;35723;51.194;5.112;2024-03-02T11:53:16;16.10;99.90
49829;DHT22;35723;51.194;5.112;2024-03-02T11:55:42;16.10;99.90
49829;DHT22;35723;51.194;5.112;2024-03-02T11:58:12;16.10;99.90
49829;DHT22;35723;51.194;5.112;2024-03-02T12:00:38;16.30;99.90
49829;DHT22;35723;51.194;5.112;2024-03-02T12:03:05;16.30;99.90
49829;DHT22;35723;51.194;5.112;2024-03-02T12:05:32;16.30;99.90
49829;DHT22;35723;51.194;5.112;2024-03-02T12:07:58;16.20;99.90
49829;DHT22;35723;51.194;5.112;2024-03-02T12:10:25;16.40;99.90
49829;DHT22;35723;51.194;5.112;2024-03-02T12:13:01;16.50;99.90
49829;DHT22;35723;51.194;5.112;2024-03-02T12:15:28;16.50;99.90
49829;DHT22;35723;51.194;5.112;2024-03-02T12:17:58;16.50;99.90
49829;DHT22;35723;51.194;5.112;2024-03-02T12:20:26;16.60;99.90
49829;DHT22;35723;51.194;5.112;2024-03-02T12:22:53;16.60;99.90
49829;DHT22;35723;51.194;5.112;2024-03-02T12:25:20;16.50;99.90
49829;DHT22;35723;51.194;5.112;2024-03-02T12:27:49;16.60;99.90
49829;DHT22;35723;51.194;5.112;2024-03-02T12:30:18;16.50;99.90
49829;DHT22;35723;51.194;5.112;2024-03-02T12:32:45;16.50;99.90
49829;DHT22;35723;51.194;5.112;2024-03-02T12:35:11;16.50;99.90
49829;DHT22;35723;51.194;5.112;2024-03-02T12:37:50;16.60;99.90
49829;DHT22;35723;51.194;5.112;2024-03-02T12:40:18;16.60;99.90
49829;DHT22;35723;51.194;5.112;2024-03-02T12:42:44;16.70;99.90
49829;DHT22;35723;51.194;5.112;2024-03-02T12:45:11;16.70;99.90
49829;DHT22;35723;51.194;5.112;2024-03-02T12:47:37;16.80;99.90
49829;DHT22;35723;51.194;5.112;2024-03-02T12:50:04;16.90;99.90
49829;DHT22;35723;51.194;5.112;2024-03-02T12:52:31;16.80;99.90
49829;DHT22;35723;51.194;5.112;2024-03-02T12:54:59;16.80;99.90
49829;DHT22;35723;51.194;5.112;2024-03-02T12:57:26;16.80;99.90
49829;DHT22;35723;51.194;5.112;2024-03-02T13:00:05;16.80;99.90
49829;DHT22;35723;51.194;5.112;2024-03-02T13:02:35;16.80;99.90
49829;DHT22;35723;51.194;5.112;2024-03-02T13:05:01;16.90;99.90
49829;DHT22;35723;51.194;5.112;2024-03-02T13:07:28;16.90;99.90
49829;DHT22;35723;51.194;5.112;2024-03-02T13:09:55;16.90;99.90
49829;DHT22;35723;51.194;5.112;2024-03-02T13:12:21;16.90;99.90
49829;DHT22;35723;51.194;5.112;2024-03-02T13:14:58;16.90;99.90
49829;DHT22;35723;51.194;5.112;2024-03-02T13:17:24;16.90;99.90
49829;DHT22;35723;51.194;5.112;2024-03-02T13:22:19;16.90;99.90
49829;DHT22;35723;51.194;5.112;2024-03-02T13:24:45;16.80;99.90
49829;DHT22;35723;51.194;5.112;2024-03-02T13:27:10;16.80;99.90
49829;DHT22;35723;51.194;5.112;2024-03-02T13:29:36;16.80;99.90
49829;DHT22;35723;51.194;5.112;2024-03-02T13:32:02;16.70;99.90
49829;DHT22;35723;51.194;5.112;2024-03-02T13:34:28;16.80;99.90
49829;DHT22;35723;51.194;5.112;2024-03-02T13:36:54;16.70;99.90
49829;DHT22;35723;51.194;5.112;2024-03-02T13:39:19;16.80;99.90
49829;DHT22;35723;51.194;5.112;2024-03-02T13:41:45;16.70;99.90
49829;DHT22;35723;51.194;5.112;2024-03-02T13:44:21;16.70;99.90
49829;DHT22;35723;51.194;5.112;2024-03-02T13:46:47;16.70;99.90
49829;DHT22;35723;51.194;5.112;2024-03-02T13:49:13;16.70;99.90
49829;DHT22;35723;51.194;5.112;2024-03-02T13:51:39;16.70;99.90
49829;DHT22;35723;51.194;5.112;2024-03-02T13:54:05;16.70;99.90
49829;DHT22;35723;51.194;5.112;2024-03-02T13:56:31;16.80;99.90
49829;DHT22;35723;51.194;5.112;2024-03-02T13:58:58;16.70;99.90
49829;DHT22;35723;51.194;5.112;2024-03-02T14:01:24;16.70;99.90
49829;DHT22;35723;51.194;5.112;2024-03-02T14:03:50;16.70;99.90
49829;DHT22;35723;51.194;5.112;2024-03-02T14:06:16;16.80;99.90
49829;DHT22;35723;51.194;5.112;2024-03-02T14:08:42;16.80;99.90
49829;DHT22;35723;51.194;5.112;2024-03-02T14:11:10;16.90;99.90
49829;DHT22;35723;51.194;5.112;2024-03-02T14:13:43;16.80;99.90
49829;DHT22;35723;51.194;5.112;2024-03-02T14:16:10;16.80;99.90
49829;DHT22;35723;51.194;5.112;2024-03-02T14:18:36;16.80;99.90
49829;DHT22;35723;51.194;5.112;2024-03-02T14:21:02;16.80;99.90
49829;DHT22;35723;51.194;5.112;2024-03-02T14:23:29;16.70;99.90
49829;DHT22;35723;51.194;5.112;2024-03-02T14:25:55;16.80;99.90
49829;DHT22;35723;51.194;5.112;2024-03-02T14:28:21;16.70;99.90
49829;DHT22;35723;51.194;5.112;2024-03-02T14:30:46;16.70;99.90
49829;DHT22;35723;51.194;5.112;2024-03-02T14:33:13;16.70;99.90
49829;DHT22;35723;51.194;5.112;2024-03-02T14:35:39;16.60;99.90
49829;DHT22;35723;51.194;5.112;2024-03-02T14:38:04;16.60;99.90
49829;DHT22;35723;51.194;5.112;2024-03-02T14:40:30;16.60;99.90
49829;DHT22;35723;51.194;5.112;2024-03-02T14:42:56;16.60;99.90
49829;DHT22;35723;51.194;5.112;2024-03-02T14:45:21;16.60;99.90
49829;DHT22;35723;51.194;5.112;2024-03-02T14:47:47;16.50;99.90
49829;DHT22;35723;51.194;5.112;2024-03-02T14:50:13;16.50;99.90
49829;DHT22;35723;51.194;5.112;2024-03-02T14:52:41;16.50;99.90
49829;DHT22;35723;51.194;5.112;2024-03-02T14:55:07;16.50;99.90
49829;DHT22;35723;51.194;5.112;2024-03-02T14:57:33;16.40;99.90
49829;DHT22;35723;51.194;5.112;2024-03-02T14:59:59;16.40;99.90
49829;DHT22;35723;51.194;5.112;2024-03-02T15:02:24;16.40;99.90
49829;DHT22;35723;51.194;5.112;2024-03-02T15:04:50;16.30;99.90
49829;DHT22;35723;51.194;5.112;2024-03-02T15:07:16;16.30;99.90
49829;DHT22;35723;51.194;5.112;2024-03-02T15:09:42;16.30;99.90
49829;DHT22;35723;51.194;5.112;2024-03-02T15:12:07;16.30;99.90
49829;DHT22;35723;51.194;5.112;2024-03-02T15:14:38;16.30;99.90
49829;DHT22;35723;51.194;5.112;2024-03-02T15:17:14;16.20;99.90
49829;DHT22;35723;51.194;5.112;2024-03-02T15:19:44;16.30;99.90
49829;DHT22;35723;51.194;5.112;2024-03-02T15:22:10;16.20;99.90
49829;DHT22;35723;51.194;5.112;2024-03-02T15:24:36;16.20;99.90
49829;DHT22;35723;51.194;5.112;2024-03-02T15:27:01;16.20;99.90
49829;DHT22;35723;51.194;5.112;2024-03-02T15:29:30;16.20;99.90
49829;DHT22;35723;51.194;5.112;2024-03-02T15:31:57;16.10;99.90
49829;DHT22;35723;51.194;5.112;2024-03-02T15:34:23;16.10;99.90
49829;DHT22;35723;51.194;5.112;2024-03-02T15:36:49;16.10;99.90
49829;DHT22;35723;51.194;5.112;2024-03-02T15:39:15;16.10;99.90
49829;DHT22;35723;51.194;5.112;2024-03-02T15:41:40;16.10;99.90
49829;DHT22;35723;51.194;5.112;2024-03-02T15:44:07;16.10;99.90
49829;DHT22;35723;51.194;5.112;2024-03-02T15:46:33;16.10;99.90
49829;DHT22;35723;51.194;5.112;2024-03-02T15:48:59;16.10;99.90
49829;DHT22;35723;51.194;5.112;2024-03-02T15:51:26;16.10;99.90
49829;DHT22;35723;51.194;5.112;2024-03-02T15:53:52;16.10;99.90
49829;DHT22;35723;51.194;5.112;2024-03-02T15:56:17;16.10;99.90
49829;DHT22;35723;51.194;5.112;2024-03-02T15:58:43;16.00;99.90
49829;DHT22;35723;51.194;5.112;2024-03-02T16:01:09;16.00;99.90
49829;DHT22;35723;51.194;5.112;2024-03-02T16:03:35;15.90;99.90
49829;DHT22;35723;51.194;5.112;2024-03-02T16:06:00;15.90;99.90
49829;DHT22;35723;51.194;5.112;2024-03-02T16:08:26;16.00;99.90
49829;DHT22;35723;51.194;5.112;2024-03-02T16:10:52;16.00;99.90
49829;DHT22;35723;51.194;5.112;2024-03-02T16:13:18;16.00;99.90
49829;DHT22;35723;51.194;5.112;2024-03-02T16:15:44;16.00;99.90
49829;DHT22;35723;51.194;5.112;2024-03-02T16:18:10;15.90;99.90
49829;DHT22;35723;51.194;5.112;2024-03-02T16:20:35;15.90;99.90
49829;DHT22;35723;51.194;5.112;2024-03-02T16:23:01;15.90;99.90
49829;DHT22;35723;51.194;5.112;2024-03-02T16:25:26;15.90;99.90
49829;DHT22;35723;51.194;5.112;2024-03-02T16:27:53;15.90;99.90
49829;DHT22;35723;51.194;5.112;2024-03-02T16:30:18;15.80;99.90
49829;DHT22;35723;51.194;5.112;2024-03-02T16:32:46;15.80;99.90
49829;DHT22;35723;51.194;5.112;2024-03-02T16:35:12;15.80;99.90
49829;DHT22;35723;51.194;5.112;2024-03-02T16:37:38;15.80;99.90
49829;DHT22;35723;51.194;5.112;2024-03-02T16:40:04;15.70;99.90
49829;DHT22;35723;51.194;5.112;2024-03-02T16:42:30;15.70;99.90
49829;DHT22;35723;51.194;5.112;2024-03-02T16:44:57;15.70;99.90
49829;DHT22;35723;51.194;5.112;2024-03-02T16:47:25;15.70;99.90
49829;DHT22;35723;51.194;5.112;2024-03-02T16:49:54;15.70;99.90
49829;DHT22;35723;51.194;5.112;2024-03-02T16:52:19;15.70;99.90
49829;DHT22;35723;51.194;5.112;2024-03-02T16:54:49;15.60;99.90
49829;DHT22;35723;51.194;5.112;2024-03-02T16:57:16;15.60;99.90
49829;DHT22;35723;51.194;5.112;2024-03-02T16:59:43;15.60;99.90
49829;DHT22;35723;51.194;5.112;2024-03-02T17:02:09;15.60;99.90
49829;DHT22;35723;51.194;5.112;2024-03-02T17:04:38;15.50;99.90
49829;DHT22;35723;51.194;5.112;2024-03-02T17:07:04;15.50;99.90
49829;DHT22;35723;51.194;5.112;2024-03-02T17:09:29;15.50;99.90
49829;DHT22;35723;51.194;5.112;2024-03-02T17:11:55;15.50;99.90
49829;DHT22;35723;51.194;5.112;2024-03-02T17:14:21;15.50;99.90
49829;DHT22;35723;51.194;5.112;2024-03-02T17:16:46;15.50;99.90
49829;DHT22;35723;51.194;5.112;2024-03-02T17:19:12;15.50;99.90
49829;DHT22;35723;51.194;5.112;2024-03-02T17:21:38;15.40;99.90
49829;DHT22;35723;51.194;5.112;2024-03-02T17:24:03;15.40;99.90
49829;DHT22;35723;51.194;5.112;2024-03-02T17:26:29;15.40;99.90
49829;DHT22;35723;51.194;5.112;2024-03-02T17:28:55;15.40;99.90
49829;DHT22;35723;51.194;5.112;2024-03-02T17:31:21;15.40;99.90
49829;DHT22;35723;51.194;5.112;2024-03-02T17:33:48;15.40;99.90
49829;DHT22;35723;51.194;5.112;2024-03-02T17:36:14;15.40;99.90
49829;DHT22;35723;51.194;5.112;2024-03-02T17:38:40;15.30;99.90
49829;DHT22;35723;51.194;5.112;2024-03-02T17:41:06;15.30;99.90
49829;DHT22;35723;51.194;5.112;2024-03-02T17:43:33;15.30;99.90
49829;DHT22;35723;51.194;5.112;2024-03-02T17:45:59;15.30;99.90
49829;DHT22;35723;51.194;5.112;2024-03-02T17:48:25;15.20;99.90
49829;DHT22;35723;51.194;5.112;2024-03-02T17:50:51;15.20;99.90
49829;DHT22;35723;51.194;5.112;2024-03-02T17:53:17;15.20;99.90
49829;DHT22;35723;51.194;5.112;2024-03-02T17:55:43;15.20;99.90
49829;DHT22;35723;51.194;5.112;2024-03-02T17:58:09;15.10;99.90
49829;DHT22;35723;51.194;5.112;2024-03-02T18:00:35;15.10;99.90
49829;DHT22;35723;51.194;5.112;2024-03-02T18:03:00;15.10;99.90
49829;DHT22;35723;51.194;5.112;2024-03-02T18:05:26;15.10;99.90
49829;DHT22;35723;51.194;5.112;2024-03-02T18:07:52;15.10;99.90
49829;DHT22;35723;51.194;5.112;2024-03-02T18:10:17;15.10;99.90
49829;DHT22;35723;51.194;5.112;2024-03-02T18:12:43;15.00;99.90
49829;DHT22;35723;51.194;5.112;2024-03-02T18:15:10;15.00;99.90
49829;DHT22;35723;51.194;5.112;2024-03-02T18:17:36;15.00;99.90
49829;DHT22;35723;51.194;5.112;2024-03-02T18:20:02;14.90;99.90
49829;DHT22;35723;51.194;5.112;2024-03-02T18:22:30;14.90;99.90
49829;DHT22;35723;51.194;5.112;2024-03-02T18:24:56;14.90;99.90
49829;DHT22;35723;51.194;5.112;2024-03-02T18:27:22;14.90;99.90
49829;DHT22;35723;51.194;5.112;2024-03-02T18:29:48;14.80;99.90
49829;DHT22;35723;51.194;5.112;2024-03-02T18:32:13;14.80;99.90
49829;DHT22;35723;51.194;5.112;2024-03-02T18:34:39;14.80;99.90